Covington, Iowa
Current Conditions -  °F | °C
As of 8:52 PM on Monday 26 Jan 2015 (Local Time) from KCID Reporting Station
Overcast Overcast  
Wind Chill: 29°   Ceiling: 4300
Heat Index: 37°   Visibility: 10mi
Dew Point: 35°   Wind: 13mph
Humidity: 93%   Direction: 310°NW
Pressure: 29.87"   Gusts: NA
Location:  42.0483°N, 91.7982°W
Report Text: KCID 270252Z 31011KT 10SM FEW026 OVC043 03/02 A2987 RMK AO2 SLP125 T00280017 51019
Loading
Personal Weather Stations






























Interactive Weather Map New forecast layout! Learn more

10-Day Weather Forecast

Advertisements
Track Severe Weather on mobile